EWG2DU EDDL-LIML
Flight info
| Callsign | EWG2DU |
|---|---|
| Flight time | 1h 11m |
| Altitude | 35000 |
| Route | DODEN1T DODEN Y852 NATOR DCT TRA DCT RIPUS DCT GERSA DCT SOSON DCT ODINA |
| Aircraft | A321/M-SDE3FGHIRWY/LB1 |
Departure
| Time | 2026-05-04 16:37 |
|---|---|
| Airport | Düsseldorf Airport (EDDL) |
Arrival
| Time | 2026-05-04 17:49 |
|---|---|
| Airport | Milano Linate Airport (LIML) |
| Time | Latitude | Longitude | Altitude | Speed | Heading |
|---|---|---|---|---|---|
| 2026-05-04 16:03 | 51.27909 | 6.76252 | 137 ft | 0 kts | 61° |
| 2026-05-04 16:26 | 51.27875 | 6.76163 | 137 ft | 4 kts | 20° |
| 2026-05-04 16:27 | 51.27841 | 6.76184 | 137 ft | 1 kts | 270° |
| 2026-05-04 16:28 | 51.27841 | 6.76185 | 137 ft | 0 kts | 270° |
| 2026-05-04 16:30 | 51.27841 | 6.76123 | 137 ft | 8 kts | 270° |
| 2026-05-04 16:31 | 51.27944 | 6.76050 | 137 ft | 11 kts | 357° |
| 2026-05-04 16:31 | 51.28139 | 6.76047 | 137 ft | 7 kts | 52° |
| 2026-05-04 16:32 | 51.28331 | 6.76460 | 137 ft | 18 kts | 56° |
| 2026-05-04 16:33 | 51.28470 | 6.76737 | 137 ft | 16 kts | 52° |
| 2026-05-04 16:33 | 51.28622 | 6.77056 | 137 ft | 20 kts | 52° |
| 2026-05-04 16:34 | 51.28804 | 6.77441 | 136 ft | 23 kts | 53° |
| 2026-05-04 16:34 | 51.28907 | 6.77656 | 137 ft | 25 kts | 53° |
| 2026-05-04 16:35 | 51.29229 | 6.78329 | 137 ft | 23 kts | 53° |
| 2026-05-04 16:35 | 51.29524 | 6.78552 | 144 ft | 9 kts | 345° |
| 2026-05-04 16:36 | 51.29527 | 6.78492 | 143 ft | 6 kts | 243° |
| 2026-05-04 16:36 | 51.29333 | 6.78078 | 140 ft | 76 kts | 233° |
| 2026-05-04 16:37 | 51.28204 | 6.75723 | 295 ft | 173 kts | 233° |
| 2026-05-04 16:37 | 51.27550 | 6.73967 | 708 ft | 193 kts | 241° |
| 2026-05-04 16:37 | 51.25892 | 6.70176 | 1724 ft | 226 kts | 226° |
| 2026-05-04 16:38 | 51.23674 | 6.66097 | 2865 ft | 250 kts | 227° |
| 2026-05-04 16:39 | 51.18710 | 6.64446 | 5124 ft | 260 kts | 184° |
| 2026-05-04 16:39 | 51.15053 | 6.64688 | 6605 ft | 268 kts | 159° |
| 2026-05-04 16:40 | 51.12869 | 6.69321 | 8015 ft | 284 kts | 98° |
| 2026-05-04 16:40 | 51.13129 | 6.75583 | 9322 ft | 293 kts | 84° |
| 2026-05-04 16:41 | 51.13738 | 6.82102 | 10378 ft | 310 kts | 86° |
| 2026-05-04 16:41 | 51.14032 | 6.93417 | 10856 ft | 367 kts | 90° |
| 2026-05-04 16:42 | 51.14374 | 7.05842 | 12474 ft | 380 kts | 89° |
| 2026-05-04 16:43 | 51.14682 | 7.14325 | 13586 ft | 388 kts | 89° |
| 2026-05-04 16:43 | 51.14993 | 7.22933 | 14586 ft | 394 kts | 89° |
| 2026-05-04 16:43 | 51.15141 | 7.27315 | 15061 ft | 398 kts | 89° |
| 2026-05-04 16:44 | 51.14156 | 7.44778 | 16998 ft | 399 kts | 119° |
| 2026-05-04 16:45 | 51.10967 | 7.51885 | 17940 ft | 394 kts | 140° |
| 2026-05-04 16:46 | 51.05689 | 7.59904 | 19066 ft | 400 kts | 140° |
| 2026-05-04 16:46 | 51.01606 | 7.66125 | 19896 ft | 404 kts | 140° |
| 2026-05-04 16:47 | 50.97518 | 7.72322 | 20735 ft | 407 kts | 142° |
| 2026-05-04 16:47 | 50.92881 | 7.77377 | 21534 ft | 406 kts | 152° |
| 2026-05-04 16:48 | 50.85618 | 7.84517 | 22748 ft | 412 kts | 152° |
| 2026-05-04 16:48 | 50.83178 | 7.86918 | 23143 ft | 414 kts | 152° |
| 2026-05-04 16:49 | 50.78254 | 7.91750 | 23881 ft | 419 kts | 152° |
| 2026-05-04 16:49 | 50.73406 | 7.96492 | 24529 ft | 422 kts | 152° |
| 2026-05-04 16:50 | 50.68387 | 8.01389 | 25156 ft | 426 kts | 152° |
| 2026-05-04 16:50 | 50.63313 | 8.06296 | 25781 ft | 429 kts | 155° |
| 2026-05-04 16:51 | 50.57868 | 8.09479 | 26377 ft | 423 kts | 173° |
| 2026-05-04 16:51 | 50.54947 | 8.10030 | 26677 ft | 423 kts | 178° |
| 2026-05-04 16:51 | 50.49064 | 8.10791 | 27286 ft | 426 kts | 178° |
| 2026-05-04 16:52 | 50.43166 | 8.11560 | 27853 ft | 429 kts | 178° |
| 2026-05-04 16:52 | 50.40182 | 8.11952 | 28125 ft | 431 kts | 178° |
| 2026-05-04 16:53 | 50.34180 | 8.12739 | 28624 ft | 434 kts | 178° |
| 2026-05-04 16:53 | 50.26539 | 8.13739 | 29252 ft | 435 kts | 178° |
| 2026-05-04 16:54 | 50.23521 | 8.14125 | 29601 ft | 434 kts | 178° |
| 2026-05-04 16:55 | 50.11686 | 8.15673 | 30724 ft | 431 kts | 178° |
| 2026-05-04 16:55 | 50.05718 | 8.16490 | 31251 ft | 430 kts | 178° |
| 2026-05-04 16:56 | 49.99767 | 8.17326 | 31782 ft | 428 kts | 178° |
| 2026-05-04 16:56 | 49.90875 | 8.18576 | 32567 ft | 427 kts | 178° |
| 2026-05-04 16:57 | 49.87923 | 8.18987 | 32826 ft | 426 kts | 178° |
| 2026-05-04 16:57 | 49.82027 | 8.19806 | 33346 ft | 425 kts | 178° |
| 2026-05-04 16:58 | 49.73207 | 8.21005 | 34112 ft | 423 kts | 178° |
| 2026-05-04 16:58 | 49.70274 | 8.21405 | 34330 ft | 423 kts | 178° |
| 2026-05-04 16:59 | 49.64492 | 8.22207 | 34716 ft | 423 kts | 178° |
| 2026-05-04 17:00 | 49.52852 | 8.23809 | 34976 ft | 424 kts | 178° |
| 2026-05-04 17:01 | 49.38161 | 8.25809 | 34973 ft | 424 kts | 178° |
| 2026-05-04 17:02 | 49.26421 | 8.27391 | 34977 ft | 425 kts | 178° |
| 2026-05-04 17:03 | 49.17555 | 8.28582 | 34976 ft | 426 kts | 178° |
| 2026-05-04 17:03 | 49.08690 | 8.29775 | 34983 ft | 427 kts | 178° |
| 2026-05-04 17:04 | 48.96840 | 8.31274 | 35002 ft | 427 kts | 180° |
| 2026-05-04 17:05 | 48.84967 | 8.31296 | 35010 ft | 426 kts | 183° |
| 2026-05-04 17:06 | 48.76055 | 8.31330 | 35014 ft | 427 kts | 182° |
| 2026-05-04 17:07 | 48.68142 | 8.31474 | 35012 ft | 427 kts | 182° |
| 2026-05-04 17:07 | 48.61234 | 8.31568 | 35008 ft | 427 kts | 182° |
| 2026-05-04 17:08 | 48.52302 | 8.31670 | 35005 ft | 428 kts | 182° |
| 2026-05-04 17:09 | 48.46347 | 8.31755 | 35000 ft | 428 kts | 182° |
| 2026-05-04 17:09 | 48.40385 | 8.31836 | 35000 ft | 428 kts | 182° |
| 2026-05-04 17:10 | 48.25488 | 8.32026 | 34997 ft | 428 kts | 182° |
| 2026-05-04 17:11 | 48.19524 | 8.32091 | 34992 ft | 429 kts | 182° |
| 2026-05-04 17:12 | 48.10596 | 8.33665 | 34994 ft | 433 kts | 174° |
| 2026-05-04 17:13 | 47.95735 | 8.37277 | 34993 ft | 433 kts | 174° |
| 2026-05-04 17:14 | 47.85261 | 8.39791 | 34990 ft | 433 kts | 174° |
| 2026-05-04 17:15 | 47.76366 | 8.41911 | 34995 ft | 433 kts | 174° |
| 2026-05-04 17:16 | 47.64437 | 8.44561 | 35003 ft | 432 kts | 177° |
| 2026-05-04 17:17 | 47.52458 | 8.46126 | 35011 ft | 432 kts | 178° |
| 2026-05-04 17:18 | 47.40451 | 8.47880 | 35010 ft | 433 kts | 177° |
| 2026-05-04 17:19 | 47.28438 | 8.49660 | 35013 ft | 435 kts | 178° |
| 2026-05-04 17:20 | 47.16447 | 8.51392 | 35031 ft | 434 kts | 178° |
| 2026-05-04 17:20 | 47.07408 | 8.52708 | 35015 ft | 435 kts | 178° |
| 2026-05-04 17:21 | 46.95363 | 8.54452 | 35010 ft | 435 kts | 178° |
| 2026-05-04 17:22 | 46.89328 | 8.55310 | 35007 ft | 436 kts | 178° |
| 2026-05-04 17:23 | 46.77250 | 8.57050 | 35031 ft | 437 kts | 178° |
| 2026-05-04 17:24 | 46.68164 | 8.58348 | 35063 ft | 436 kts | 178° |
| 2026-05-04 17:25 | 46.56162 | 8.60055 | 34927 ft | 431 kts | 178° |
| 2026-05-04 17:25 | 46.50241 | 8.60888 | 34453 ft | 431 kts | 178° |
| 2026-05-04 17:26 | 46.44273 | 8.61732 | 33964 ft | 431 kts | 178° |
| 2026-05-04 17:26 | 46.35312 | 8.63006 | 33129 ft | 432 kts | 177° |
| 2026-05-04 17:27 | 46.29315 | 8.63851 | 32581 ft | 433 kts | 176° |
| 2026-05-04 17:27 | 46.23767 | 8.66775 | 32044 ft | 434 kts | 147° |
| 2026-05-04 17:28 | 46.19050 | 8.72527 | 31525 ft | 449 kts | 142° |
| 2026-05-04 17:29 | 46.11998 | 8.81449 | 30497 ft | 448 kts | 141° |
| 2026-05-04 17:29 | 46.05036 | 8.90171 | 28986 ft | 437 kts | 142° |
| 2026-05-04 17:30 | 45.98207 | 8.98669 | 27431 ft | 428 kts | 142° |
| 2026-05-04 17:31 | 45.93887 | 9.04040 | 26430 ft | 423 kts | 142° |
| 2026-05-04 17:31 | 45.87325 | 9.12169 | 24974 ft | 415 kts | 142° |
| 2026-05-04 17:32 | 45.83008 | 9.17493 | 24033 ft | 404 kts | 142° |
| 2026-05-04 17:33 | 45.77507 | 9.24274 | 22707 ft | 393 kts | 142° |
| 2026-05-04 17:33 | 45.75442 | 9.26814 | 22188 ft | 389 kts | 142° |
| 2026-05-04 17:34 | 45.69373 | 9.34257 | 20697 ft | 380 kts | 142° |
| 2026-05-04 17:34 | 45.67374 | 9.36709 | 20205 ft | 378 kts | 142° |
| 2026-05-04 17:35 | 45.61517 | 9.43878 | 18801 ft | 355 kts | 142° |
| 2026-05-04 17:35 | 45.57847 | 9.48316 | 17782 ft | 336 kts | 148° |
| 2026-05-04 17:35 | 45.55863 | 9.49936 | 17266 ft | 323 kts | 161° |
| 2026-05-04 17:36 | 45.53756 | 9.50852 | 16738 ft | 312 kts | 173° |
| 2026-05-04 17:36 | 45.51633 | 9.51155 | 16238 ft | 303 kts | 179° |
| 2026-05-04 17:36 | 45.49549 | 9.51359 | 15740 ft | 297 kts | 179° |
| 2026-05-04 17:36 | 45.47496 | 9.51569 | 15186 ft | 295 kts | 179° |
| 2026-05-04 17:37 | 45.45457 | 9.51780 | 14578 ft | 294 kts | 178° |
| 2026-05-04 17:37 | 45.43420 | 9.51988 | 13977 ft | 293 kts | 178° |
| 2026-05-04 17:37 | 45.41390 | 9.52194 | 13304 ft | 292 kts | 178° |
| 2026-05-04 17:37 | 45.39365 | 9.52398 | 12640 ft | 290 kts | 178° |
| 2026-05-04 17:38 | 45.37356 | 9.52586 | 11991 ft | 289 kts | 178° |
| 2026-05-04 17:38 | 45.35359 | 9.52753 | 11357 ft | 287 kts | 178° |
| 2026-05-04 17:38 | 45.33367 | 9.52900 | 10661 ft | 285 kts | 178° |
| 2026-05-04 17:38 | 45.31392 | 9.53025 | 10060 ft | 283 kts | 178° |
| 2026-05-04 17:39 | 45.27476 | 9.53236 | 8756 ft | 280 kts | 178° |
| 2026-05-04 17:39 | 45.25541 | 9.53337 | 8121 ft | 278 kts | 178° |
| 2026-05-04 17:39 | 45.23606 | 9.53437 | 7494 ft | 277 kts | 178° |
| 2026-05-04 17:40 | 45.21682 | 9.53541 | 6883 ft | 276 kts | 178° |
| 2026-05-04 17:40 | 45.19765 | 9.53647 | 6263 ft | 275 kts | 178° |
| 2026-05-04 17:40 | 45.17860 | 9.53636 | 5616 ft | 274 kts | 190° |
| 2026-05-04 17:40 | 45.16120 | 9.52616 | 4987 ft | 273 kts | 218° |
| 2026-05-04 17:41 | 45.14923 | 9.50569 | 4347 ft | 272 kts | 246° |
| 2026-05-04 17:41 | 45.14470 | 9.47999 | 3719 ft | 269 kts | 264° |
| 2026-05-04 17:41 | 45.14376 | 9.45365 | 3162 ft | 268 kts | 272° |
| 2026-05-04 17:41 | 45.14452 | 9.42775 | 3008 ft | 258 kts | 274° |
| 2026-05-04 17:42 | 45.14555 | 9.40321 | 3010 ft | 241 kts | 278° |
| 2026-05-04 17:42 | 45.15157 | 9.38236 | 3011 ft | 223 kts | 310° |
| 2026-05-04 17:42 | 45.16295 | 9.36826 | 3025 ft | 216 kts | 322° |
| 2026-05-04 17:42 | 45.17499 | 9.35612 | 3014 ft | 215 kts | 323° |
| 2026-05-04 17:43 | 45.18730 | 9.34405 | 3015 ft | 215 kts | 324° |
| 2026-05-04 17:43 | 45.19957 | 9.33203 | 3012 ft | 214 kts | 324° |
| 2026-05-04 17:43 | 45.21176 | 9.32004 | 3013 ft | 214 kts | 324° |
| 2026-05-04 17:43 | 45.22403 | 9.30803 | 3012 ft | 214 kts | 324° |
| 2026-05-04 17:44 | 45.23711 | 9.29966 | 3004 ft | 200 kts | 348° |
| 2026-05-04 17:44 | 45.25064 | 9.29796 | 3018 ft | 192 kts | 353° |
| 2026-05-04 17:44 | 45.26384 | 9.29655 | 3017 ft | 189 kts | 353° |
| 2026-05-04 17:44 | 45.27688 | 9.29514 | 3017 ft | 188 kts | 353° |
| 2026-05-04 17:45 | 45.28990 | 9.29375 | 3004 ft | 187 kts | 353° |
| 2026-05-04 17:45 | 45.30251 | 9.29240 | 2877 ft | 177 kts | 353° |
| 2026-05-04 17:45 | 45.31453 | 9.29112 | 2694 ft | 168 kts | 352° |
| 2026-05-04 17:45 | 45.32609 | 9.28987 | 2484 ft | 165 kts | 353° |
| 2026-05-04 17:46 | 45.33749 | 9.28864 | 2255 ft | 164 kts | 353° |
| 2026-05-04 17:46 | 45.34894 | 9.28741 | 2036 ft | 165 kts | 352° |
| 2026-05-04 17:46 | 45.36017 | 9.28621 | 1818 ft | 158 kts | 352° |
| 2026-05-04 17:46 | 45.37091 | 9.28507 | 1609 ft | 152 kts | 353° |
| 2026-05-04 17:47 | 45.38139 | 9.28396 | 1412 ft | 150 kts | 353° |
| 2026-05-04 17:47 | 45.39168 | 9.28283 | 1203 ft | 147 kts | 354° |
| 2026-05-04 17:47 | 45.40171 | 9.28160 | 1030 ft | 147 kts | 353° |
| 2026-05-04 17:47 | 45.41199 | 9.28062 | 797 ft | 149 kts | 353° |
| 2026-05-04 17:48 | 45.42228 | 9.27958 | 658 ft | 146 kts | 354° |
| 2026-05-04 17:48 | 45.43233 | 9.27842 | 464 ft | 145 kts | 354° |
| 2026-05-04 17:48 | 45.44222 | 9.27738 | 370 ft | 137 kts | 354° |
| 2026-05-04 17:48 | 45.45089 | 9.27640 | 364 ft | 103 kts | 355° |
| 2026-05-04 17:49 | 45.45454 | 9.27603 | 358 ft | 33 kts | 356° |
| 2026-05-04 17:49 | 45.45571 | 9.27583 | 358 ft | 7 kts | 24° |
| 2026-05-04 17:49 | 45.45548 | 9.27622 | 360 ft | 8 kts | 176° |
| 2026-05-04 17:49 | 45.45460 | 9.27610 | 358 ft | 15 kts | 178° |
| 2026-05-04 17:50 | 45.45407 | 9.27710 | 361 ft | 14 kts | 73° |
| 2026-05-04 17:50 | 45.45475 | 9.27805 | 363 ft | 14 kts | 25° |
| 2026-05-04 17:50 | 45.45575 | 9.27818 | 357 ft | 15 kts | 2° |
| 2026-05-04 17:50 | 45.45681 | 9.27817 | 357 ft | 16 kts | 359° |
| 2026-05-04 17:51 | 45.45798 | 9.27816 | 358 ft | 17 kts | 2° |
| 2026-05-04 17:51 | 45.45896 | 9.27842 | 364 ft | 13 kts | 51° |
| 2026-05-04 17:51 | 45.45905 | 9.27973 | 363 ft | 14 kts | 91° |
| 2026-05-04 17:51 | 45.45912 | 9.28087 | 364 ft | 9 kts | 44° |
| 2026-05-04 17:52 | 45.45966 | 9.28102 | 358 ft | 4 kts | 1° |
| 2026-05-04 17:52 | 45.45979 | 9.28102 | 361 ft | 0 kts | 360° |